sensor_id;sensor_type;location;lat;lon;timestamp;pressure;altitude;pressure_sealevel;temperature;humidity
9419;BME280;4748;50.802;7.132;2022-12-24T00:01:09;100206.31;;;12.24;100.00
9419;BME280;4748;50.802;7.132;2022-12-24T00:03:35;100211.00;;;12.17;100.00
9419;BME280;4748;50.802;7.132;2022-12-24T00:06:05;100212.78;;;12.12;100.00
9419;BME280;4748;50.802;7.132;2022-12-24T00:08:31;100222.03;;;12.04;100.00
9419;BME280;4748;50.802;7.132;2022-12-24T00:10:57;100220.88;;;12.00;100.00
9419;BME280;4748;50.802;7.132;2022-12-24T00:13:22;100235.00;;;11.96;100.00
9419;BME280;4748;50.802;7.132;2022-12-24T00:15:48;100226.47;;;11.99;100.00
9419;BME280;4748;50.802;7.132;2022-12-24T00:18:13;100238.97;;;11.93;100.00
9419;BME280;4748;50.802;7.132;2022-12-24T00:20:39;100234.09;;;11.90;100.00
9419;BME280;4748;50.802;7.132;2022-12-24T00:23:04;100237.13;;;11.82;100.00
9419;BME280;4748;50.802;7.132;2022-12-24T00:25:30;100238.69;;;11.78;100.00
9419;BME280;4748;50.802;7.132;2022-12-24T00:27:55;100250.69;;;11.76;100.00
9419;BME280;4748;50.802;7.132;2022-12-24T00:30:20;100256.41;;;11.68;100.00
9419;BME280;4748;50.802;7.132;2022-12-24T00:32:46;100252.13;;;11.67;100.00
9419;BME280;4748;50.802;7.132;2022-12-24T00:35:11;100255.72;;;11.61;100.00
9419;BME280;4748;50.802;7.132;2022-12-24T00:37:36;100247.13;;;11.59;100.00
9419;BME280;4748;50.802;7.132;2022-12-24T00:40:02;100251.69;;;11.59;100.00
9419;BME280;4748;50.802;7.132;2022-12-24T00:42:28;100252.81;;;11.63;100.00
9419;BME280;4748;50.802;7.132;2022-12-24T00:44:53;100250.97;;;11.63;100.00
9419;BME280;4748;50.802;7.132;2022-12-24T00:47:18;100249.31;;;11.62;100.00
9419;BME280;4748;50.802;7.132;2022-12-24T00:49:44;100251.66;;;11.70;100.00
9419;BME280;4748;50.802;7.132;2022-12-24T00:52:09;100241.25;;;11.73;100.00
9419;BME280;4748;50.802;7.132;2022-12-24T00:54:35;100260.59;;;11.75;100.00
9419;BME280;4748;50.802;7.132;2022-12-24T00:57:00;100262.00;;;11.78;100.00
9419;BME280;4748;50.802;7.132;2022-12-24T00:59:25;100265.03;;;11.81;100.00
9419;BME280;4748;50.802;7.132;2022-12-24T01:01:51;100261.88;;;11.84;100.00
9419;BME280;4748;50.802;7.132;2022-12-24T01:04:16;100264.31;;;11.86;100.00
9419;BME280;4748;50.802;7.132;2022-12-24T01:07:00;100269.91;;;11.84;100.00
9419;BME280;4748;50.802;7.132;2022-12-24T01:09:25;100268.63;;;11.87;100.00
9419;BME280;4748;50.802;7.132;2022-12-24T01:11:51;100269.69;;;11.86;100.00
9419;BME280;4748;50.802;7.132;2022-12-24T01:14:16;100279.38;;;11.87;100.00
9419;BME280;4748;50.802;7.132;2022-12-24T01:16:41;100285.53;;;11.87;100.00
9419;BME280;4748;50.802;7.132;2022-12-24T01:19:07;100285.06;;;11.90;100.00
9419;BME280;4748;50.802;7.132;2022-12-24T01:21:32;100291.22;;;11.91;100.00
9419;BME280;4748;50.802;7.132;2022-12-24T01:23:58;100299.19;;;11.86;100.00
9419;BME280;4748;50.802;7.132;2022-12-24T01:26:23;100299.19;;;11.86;100.00
9419;BME280;4748;50.802;7.132;2022-12-24T01:28:48;100299.75;;;11.88;100.00
9419;BME280;4748;50.802;7.132;2022-12-24T01:31:17;100299.28;;;11.91;100.00
9419;BME280;4748;50.802;7.132;2022-12-24T01:33:43;100304.16;;;11.94;100.00
9419;BME280;4748;50.802;7.132;2022-12-24T01:36:10;100307.19;;;11.97;100.00
9419;BME280;4748;50.802;7.132;2022-12-24T01:38:36;100310.69;;;11.98;100.00
9419;BME280;4748;50.802;7.132;2022-12-24T01:41:01;100308.72;;;11.93;100.00
9419;BME280;4748;50.802;7.132;2022-12-24T01:44:19;100308.41;;;11.90;100.00
9419;BME280;4748;50.802;7.132;2022-12-24T01:46:45;100302.31;;;11.94;100.00
9419;BME280;4748;50.802;7.132;2022-12-24T01:49:13;100309.75;;;11.92;100.00
9419;BME280;4748;50.802;7.132;2022-12-24T01:51:45;100316.78;;;11.93;100.00
9419;BME280;4748;50.802;7.132;2022-12-24T01:54:34;100324.50;;;11.90;100.00
9419;BME280;4748;50.802;7.132;2022-12-24T01:57:08;100323.41;;;11.91;100.00
9419;BME280;4748;50.802;7.132;2022-12-24T01:59:36;100322.94;;;11.94;100.00
9419;BME280;4748;50.802;7.132;2022-12-24T02:02:03;100317.25;;;11.90;100.00
9419;BME280;4748;50.802;7.132;2022-12-24T02:04:53;100333.56;;;11.89;100.00
9419;BME280;4748;50.802;7.132;2022-12-24T02:07:21;100324.03;;;11.81;100.00
9419;BME280;4748;50.802;7.132;2022-12-24T02:09:48;100327.44;;;11.77;100.00
9419;BME280;4748;50.802;7.132;2022-12-24T02:12:17;100330.56;;;11.74;100.00
9419;BME280;4748;50.802;7.132;2022-12-24T02:14:42;100335.94;;;11.63;100.00
9419;BME280;4748;50.802;7.132;2022-12-24T02:17:16;100338.03;;;11.61;100.00
9419;BME280;4748;50.802;7.132;2022-12-24T02:22:45;100351.53;;;11.54;100.00
9419;BME280;4748;50.802;7.132;2022-12-24T02:30:58;100361.09;;;11.39;100.00
9419;BME280;4748;50.802;7.132;2022-12-24T02:33:41;100349.53;;;11.38;100.00
9419;BME280;4748;50.802;7.132;2022-12-24T02:36:30;100361.56;;;11.36;100.00
9419;BME280;4748;50.802;7.132;2022-12-24T02:39:04;100372.72;;;11.33;100.00
9419;BME280;4748;50.802;7.132;2022-12-24T02:41:39;100380.75;;;11.33;100.00
9419;BME280;4748;50.802;7.132;2022-12-24T02:44:27;100379.38;;;11.30;100.00
9419;BME280;4748;50.802;7.132;2022-12-24T02:46:56;100395.00;;;11.33;100.00
9419;BME280;4748;50.802;7.132;2022-12-24T02:49:22;100382.16;;;11.35;100.00
9419;BME280;4748;50.802;7.132;2022-12-24T02:51:48;100392.78;;;11.42;100.00
9419;BME280;4748;50.802;7.132;2022-12-24T02:54:13;100388.22;;;11.42;100.00
9419;BME280;4748;50.802;7.132;2022-12-24T02:57:13;100391.94;;;11.41;100.00
9419;BME280;4748;50.802;7.132;2022-12-24T03:00:03;100400.38;;;11.45;100.00
9419;BME280;4748;50.802;7.132;2022-12-24T03:02:55;100403.50;;;11.42;100.00
9419;BME280;4748;50.802;7.132;2022-12-24T03:10:51;100400.50;;;11.50;100.00
9419;BME280;4748;50.802;7.132;2022-12-24T03:13:19;100399.00;;;11.54;100.00
9419;BME280;4748;50.802;7.132;2022-12-24T03:15:46;100402.47;;;11.54;100.00
9419;BME280;4748;50.802;7.132;2022-12-24T03:18:18;100398.53;;;11.57;100.00
9419;BME280;4748;50.802;7.132;2022-12-24T03:20:49;100403.88;;;11.57;100.00
9419;BME280;4748;50.802;7.132;2022-12-24T03:23:18;100406.81;;;11.55;100.00
9419;BME280;4748;50.802;7.132;2022-12-24T03:25:43;100404.25;;;11.60;100.00
9419;BME280;4748;50.802;7.132;2022-12-24T03:28:12;100402.84;;;11.58;100.00
9419;BME280;4748;50.802;7.132;2022-12-24T03:30:43;100412.63;;;11.52;100.00
9419;BME280;4748;50.802;7.132;2022-12-24T03:33:10;100420.91;;;11.51;100.00
9419;BME280;4748;50.802;7.132;2022-12-24T03:35:36;100432.22;;;11.53;100.00
9419;BME280;4748;50.802;7.132;2022-12-24T03:38:01;100425.53;;;11.44;100.00
9419;BME280;4748;50.802;7.132;2022-12-24T03:40:26;100422.28;;;11.42;100.00
9419;BME280;4748;50.802;7.132;2022-12-24T03:42:52;100421.66;;;11.40;100.00
9419;BME280;4748;50.802;7.132;2022-12-24T03:45:17;100420.28;;;11.37;100.00
9419;BME280;4748;50.802;7.132;2022-12-24T03:47:43;100421.31;;;11.36;100.00
9419;BME280;4748;50.802;7.132;2022-12-24T03:50:08;100420.06;;;11.39;100.00
9419;BME280;4748;50.802;7.132;2022-12-24T03:52:33;100424.34;;;11.40;100.00
9419;BME280;4748;50.802;7.132;2022-12-24T03:54:59;100420.16;;;11.32;100.00
9419;BME280;4748;50.802;7.132;2022-12-24T03:57:24;100419.34;;;11.32;100.00
9419;BME280;4748;50.802;7.132;2022-12-24T03:59:49;100414.06;;;11.25;100.00
9419;BME280;4748;50.802;7.132;2022-12-24T04:02:15;100426.44;;;11.26;100.00
9419;BME280;4748;50.802;7.132;2022-12-24T04:04:40;100422.47;;;11.29;100.00
9419;BME280;4748;50.802;7.132;2022-12-24T04:07:06;100420.69;;;11.23;100.00
9419;BME280;4748;50.802;7.132;2022-12-24T04:09:31;100422.00;;;11.20;100.00
9419;BME280;4748;50.802;7.132;2022-12-24T04:11:57;100411.38;;;11.25;100.00
9419;BME280;4748;50.802;7.132;2022-12-24T04:14:22;100407.28;;;11.12;100.00
9419;BME280;4748;50.802;7.132;2022-12-24T04:16:47;100403.78;;;11.11;100.00
9419;BME280;4748;50.802;7.132;2022-12-24T04:19:13;100411.00;;;10.99;100.00
9419;BME280;4748;50.802;7.132;2022-12-24T04:21:38;100401.31;;;10.98;100.00
9419;BME280;4748;50.802;7.132;2022-12-24T04:24:04;100413.06;;;10.97;100.00
9419;BME280;4748;50.802;7.132;2022-12-24T04:26:29;100417.59;;;10.97;100.00
9419;BME280;4748;50.802;7.132;2022-12-24T04:28:55;100413.75;;;10.93;100.00
9419;BME280;4748;50.802;7.132;2022-12-24T04:31:20;100425.63;;;10.97;100.00
9419;BME280;4748;50.802;7.132;2022-12-24T04:33:46;100413.50;;;10.94;100.00
9419;BME280;4748;50.802;7.132;2022-12-24T04:36:14;100406.75;;;10.92;100.00
9419;BME280;4748;50.802;7.132;2022-12-24T04:38:42;100409.41;;;10.92;100.00
9419;BME280;4748;50.802;7.132;2022-12-24T04:41:10;100415.47;;;10.87;100.00
9419;BME280;4748;50.802;7.132;2022-12-24T04:43:36;100427.81;;;10.88;100.00
9419;BME280;4748;50.802;7.132;2022-12-24T04:46:10;100436.78;;;10.82;100.00
9419;BME280;4748;50.802;7.132;2022-12-24T04:48:36;100425.44;;;10.80;100.00
9419;BME280;4748;50.802;7.132;2022-12-24T04:51:04;100429.78;;;10.81;100.00
9419;BME280;4748;50.802;7.132;2022-12-24T04:53:30;100421.63;;;10.76;100.00
9419;BME280;4748;50.802;7.132;2022-12-24T04:55:55;100424.28;;;10.76;100.00
9419;BME280;4748;50.802;7.132;2022-12-24T04:58:21;100431.72;;;10.74;100.00
9419;BME280;4748;50.802;7.132;2022-12-24T05:00:46;100425.56;;;10.74;100.00
9419;BME280;4748;50.802;7.132;2022-12-24T05:03:12;100421.47;;;10.71;100.00
9419;BME280;4748;50.802;7.132;2022-12-24T05:05:37;100424.81;;;10.67;100.00
9419;BME280;4748;50.802;7.132;2022-12-24T05:08:02;100424.25;;;10.65;100.00
9419;BME280;4748;50.802;7.132;2022-12-24T05:10:28;100428.75;;;10.65;100.00
9419;BME280;4748;50.802;7.132;2022-12-24T05:12:53;100426.69;;;10.67;100.00
9419;BME280;4748;50.802;7.132;2022-12-24T05:15:18;100428.63;;;10.60;100.00
9419;BME280;4748;50.802;7.132;2022-12-24T05:17:44;100430.03;;;10.62;100.00
9419;BME280;4748;50.802;7.132;2022-12-24T05:20:09;100436.06;;;10.58;100.00
9419;BME280;4748;50.802;7.132;2022-12-24T05:22:34;100446.06;;;10.62;100.00
9419;BME280;4748;50.802;7.132;2022-12-24T05:25:18;100447.94;;;10.62;100.00
9419;BME280;4748;50.802;7.132;2022-12-24T05:28:03;100444.25;;;10.63;100.00
9419;BME280;4748;50.802;7.132;2022-12-24T05:30:28;100439.13;;;10.61;100.00
9419;BME280;4748;50.802;7.132;2022-12-24T05:32:53;100447.16;;;10.61;100.00
9419;BME280;4748;50.802;7.132;2022-12-24T05:35:18;100445.78;;;10.52;100.00
9419;BME280;4748;50.802;7.132;2022-12-24T05:37:44;100448.63;;;10.57;100.00
9419;BME280;4748;50.802;7.132;2022-12-24T05:40:09;100450.72;;;10.55;100.00
9419;BME280;4748;50.802;7.132;2022-12-24T05:42:35;100453.59;;;10.54;100.00
9419;BME280;4748;50.802;7.132;2022-12-24T05:45:00;100453.97;;;10.57;100.00
9419;BME280;4748;50.802;7.132;2022-12-24T05:47:25;100452.13;;;10.58;100.00
9419;BME280;4748;50.802;7.132;2022-12-24T05:49:51;100455.97;;;10.62;100.00
9419;BME280;4748;50.802;7.132;2022-12-24T05:52:16;100461.78;;;10.59;100.00
9419;BME280;4748;50.802;7.132;2022-12-24T05:54:41;100468.56;;;10.61;100.00
9419;BME280;4748;50.802;7.132;2022-12-24T05:57:07;100469.81;;;10.59;100.00
9419;BME280;4748;50.802;7.132;2022-12-24T05:59:32;100475.22;;;10.52;100.00
9419;BME280;4748;50.802;7.132;2022-12-24T06:01:57;100472.44;;;10.47;100.00
9419;BME280;4748;50.802;7.132;2022-12-24T06:04:23;100478.34;;;10.49;100.00
9419;BME280;4748;50.802;7.132;2022-12-24T06:06:48;100491.84;;;10.43;100.00
9419;BME280;4748;50.802;7.132;2022-12-24T06:09:13;100488.09;;;10.44;100.00
9419;BME280;4748;50.802;7.132;2022-12-24T06:11:39;100479.72;;;10.40;100.00
9419;BME280;4748;50.802;7.132;2022-12-24T06:14:04;100473.31;;;10.41;100.00
9419;BME280;4748;50.802;7.132;2022-12-24T06:16:30;100480.81;;;10.33;100.00
9419;BME280;4748;50.802;7.132;2022-12-24T06:18:55;100486.22;;;10.26;100.00
9419;BME280;4748;50.802;7.132;2022-12-24T06:21:21;100482.22;;;10.18;100.00
9419;BME280;4748;50.802;7.132;2022-12-24T06:23:47;100485.16;;;10.10;100.00
9419;BME280;4748;50.802;7.132;2022-12-24T06:26:18;100489.03;;;10.14;100.00
9419;BME280;4748;50.802;7.132;2022-12-24T06:28:44;100491.13;;;10.12;100.00
9419;BME280;4748;50.802;7.132;2022-12-24T06:31:12;100486.44;;;10.07;100.00
9419;BME280;4748;50.802;7.132;2022-12-24T06:33:38;100495.94;;;10.03;100.00
9419;BME280;4748;50.802;7.132;2022-12-24T06:36:18;100495.09;;;10.03;100.00
9419;BME280;4748;50.802;7.132;2022-12-24T06:38:45;100502.09;;;10.04;100.00
9419;BME280;4748;50.802;7.132;2022-12-24T06:41:12;100505.63;;;10.04;100.00
9419;BME280;4748;50.802;7.132;2022-12-24T06:43:37;100498.31;;;10.11;100.00
9419;BME280;4748;50.802;7.132;2022-12-24T06:46:03;100496.63;;;10.17;100.00
9419;BME280;4748;50.802;7.132;2022-12-24T06:48:29;100506.66;;;10.21;100.00
9419;BME280;4748;50.802;7.132;2022-12-24T06:50:54;100503.94;;;10.27;100.00
9419;BME280;4748;50.802;7.132;2022-12-24T06:53:20;100511.28;;;10.32;100.00
9419;BME280;4748;50.802;7.132;2022-12-24T06:55:45;100511.28;;;10.32;100.00
9419;BME280;4748;50.802;7.132;2022-12-24T06:58:11;100525.06;;;10.35;100.00
9419;BME280;4748;50.802;7.132;2022-12-24T07:00:37;100536.72;;;10.41;100.00
9419;BME280;4748;50.802;7.132;2022-12-24T07:03:02;100533.00;;;10.42;100.00
9419;BME280;4748;50.802;7.132;2022-12-24T07:05:28;100532.94;;;10.48;100.00
9419;BME280;4748;50.802;7.132;2022-12-24T07:07:54;100540.75;;;10.50;100.00
9419;BME280;4748;50.802;7.132;2022-12-24T07:10:20;100533.31;;;10.52;100.00
9419;BME280;4748;50.802;7.132;2022-12-24T07:12:46;100528.41;;;10.49;100.00
9419;BME280;4748;50.802;7.132;2022-12-24T07:15:12;100525.94;;;10.47;100.00
9419;BME280;4748;50.802;7.132;2022-12-24T07:17:38;100528.03;;;10.45;100.00
9419;BME280;4748;50.802;7.132;2022-12-24T07:20:04;100529.97;;;10.38;100.00
9419;BME280;4748;50.802;7.132;2022-12-24T07:22:30;100539.47;;;10.34;100.00
9419;BME280;4748;50.802;7.132;2022-12-24T07:24:56;100548.31;;;10.35;100.00
9419;BME280;4748;50.802;7.132;2022-12-24T07:27:21;100541.47;;;10.39;100.00
9419;BME280;4748;50.802;7.132;2022-12-24T07:29:46;100545.78;;;10.40;100.00
9419;BME280;4748;50.802;7.132;2022-12-24T07:32:12;100558.13;;;10.41;100.00
9419;BME280;4748;50.802;7.132;2022-12-24T07:34:38;100562.22;;;10.43;100.00
9419;BME280;4748;50.802;7.132;2022-12-24T07:37:04;100565.28;;;10.47;100.00
9419;BME280;4748;50.802;7.132;2022-12-24T07:39:30;100561.56;;;10.48;100.00
9419;BME280;4748;50.802;7.132;2022-12-24T07:41:55;100576.13;;;10.52;100.00
9419;BME280;4748;50.802;7.132;2022-12-24T07:44:20;100563.34;;;10.54;100.00
9419;BME280;4748;50.802;7.132;2022-12-24T07:46:46;100573.63;;;10.57;100.00
9419;BME280;4748;50.802;7.132;2022-12-24T07:49:11;100582.81;;;10.61;100.00
9419;BME280;4748;50.802;7.132;2022-12-24T07:51:36;100581.78;;;10.62;100.00
9419;BME280;4748;50.802;7.132;2022-12-24T07:54:02;100587.97;;;10.62;100.00
9419;BME280;4748;50.802;7.132;2022-12-24T07:56:29;100576.88;;;10.59;100.00
9419;BME280;4748;50.802;7.132;2022-12-24T07:58:54;100576.06;;;10.58;100.00
9419;BME280;4748;50.802;7.132;2022-12-24T08:01:20;100584.34;;;10.57;100.00
9419;BME280;4748;50.802;7.132;2022-12-24T08:03:45;100575.91;;;10.53;100.00
9419;BME280;4748;50.802;7.132;2022-12-24T08:06:10;100586.84;;;10.52;100.00
9419;BME280;4748;50.802;7.132;2022-12-24T08:08:36;100590.09;;;10.54;100.00
9419;BME280;4748;50.802;7.132;2022-12-24T08:11:04;100593.38;;;10.56;100.00
9419;BME280;4748;50.802;7.132;2022-12-24T08:13:30;100608.19;;;10.58;100.00
9419;BME280;4748;50.802;7.132;2022-12-24T08:15:55;100606.28;;;10.65;100.00
9419;BME280;4748;50.802;7.132;2022-12-24T08:18:21;100617.13;;;10.70;100.00
9419;BME280;4748;50.802;7.132;2022-12-24T08:20:46;100621.22;;;10.72;100.00
9419;BME280;4748;50.802;7.132;2022-12-24T08:23:12;100614.31;;;10.83;100.00
9419;BME280;4748;50.802;7.132;2022-12-24T08:25:44;100611.41;;;10.84;100.00
9419;BME280;4748;50.802;7.132;2022-12-24T08:28:10;100619.16;;;10.92;100.00
9419;BME280;4748;50.802;7.132;2022-12-24T08:30:35;100617.22;;;10.99;100.00
9419;BME280;4748;50.802;7.132;2022-12-24T08:33:01;100628.31;;;11.03;100.00
9419;BME280;4748;50.802;7.132;2022-12-24T08:35:27;100626.91;;;11.18;100.00
9419;BME280;4748;50.802;7.132;2022-12-24T08:37:52;100633.56;;;11.27;100.00
9419;BME280;4748;50.802;7.132;2022-12-24T08:40:18;100632.84;;;11.38;100.00
9419;BME280;4748;50.802;7.132;2022-12-24T08:42:43;100630.66;;;11.46;100.00
9419;BME280;4748;50.802;7.132;2022-12-24T08:45:09;100643.25;;;11.64;100.00
9419;BME280;4748;50.802;7.132;2022-12-24T08:47:36;100654.63;;;11.77;100.00
9419;BME280;4748;50.802;7.132;2022-12-24T08:50:02;100653.81;;;11.88;100.00
9419;BME280;4748;50.802;7.132;2022-12-24T08:52:28;100657.47;;;11.93;100.00
9419;BME280;4748;50.802;7.132;2022-12-24T08:54:53;100670.13;;;12.04;100.00
9419;BME280;4748;50.802;7.132;2022-12-24T08:57:18;100670.16;;;12.16;100.00
9419;BME280;4748;50.802;7.132;2022-12-24T08:59:44;100668.66;;;12.31;100.00
9419;BME280;4748;50.802;7.132;2022-12-24T09:02:10;100676.03;;;12.35;100.00
9419;BME280;4748;50.802;7.132;2022-12-24T09:04:37;100677.53;;;12.31;100.00
9419;BME280;4748;50.802;7.132;2022-12-24T09:07:04;100686.03;;;12.28;100.00
9419;BME280;4748;50.802;7.132;2022-12-24T09:09:30;100688.50;;;12.30;100.00
9419;BME280;4748;50.802;7.132;2022-12-24T09:11:55;100680.75;;;12.22;100.00
9419;BME280;4748;50.802;7.132;2022-12-24T09:14:20;100689.28;;;12.19;100.00
9419;BME280;4748;50.802;7.132;2022-12-24T09:16:46;100697.09;;;12.21;100.00
9419;BME280;4748;50.802;7.132;2022-12-24T09:19:11;100696.97;;;12.16;100.00
9419;BME280;4748;50.802;7.132;2022-12-24T09:21:36;100703.78;;;12.18;100.00
9419;BME280;4748;50.802;7.132;2022-12-24T09:24:03;100701.09;;;12.18;100.00
9419;BME280;4748;50.802;7.132;2022-12-24T09:26:28;100708.06;;;12.19;100.00
9419;BME280;4748;50.802;7.132;2022-12-24T09:28:57;100706.44;;;12.18;100.00
9419;BME280;4748;50.802;7.132;2022-12-24T09:31:23;100722.66;;;12.23;100.00
9419;BME280;4748;50.802;7.132;2022-12-24T09:33:49;100725.34;;;12.23;100.00
9419;BME280;4748;50.802;7.132;2022-12-24T09:36:16;100733.41;;;12.23;100.00
9419;BME280;4748;50.802;7.132;2022-12-24T09:38:41;100730.25;;;12.26;100.00
9419;BME280;4748;50.802;7.132;2022-12-24T09:41:13;100739.34;;;12.25;100.00
9419;BME280;4748;50.802;7.132;2022-12-24T09:43:39;100741.47;;;12.23;100.00
9419;BME280;4748;50.802;7.132;2022-12-24T09:46:19;100759.09;;;12.30;100.00
9419;BME280;4748;50.802;7.132;2022-12-24T09:48:50;100761.56;;;12.32;100.00
9419;BME280;4748;50.802;7.132;2022-12-24T09:51:23;100755.31;;;12.38;100.00
9419;BME280;4748;50.802;7.132;2022-12-24T09:54:05;100761.00;;;12.41;100.00
9419;BME280;4748;50.802;7.132;2022-12-24T09:56:41;100746.44;;;12.49;100.00
9419;BME280;4748;50.802;7.132;2022-12-24T09:59:15;100750.88;;;12.55;100.00
9419;BME280;4748;50.802;7.132;2022-12-24T10:01:40;100751.50;;;12.57;100.00
9419;BME280;4748;50.802;7.132;2022-12-24T10:04:11;100756.63;;;12.58;100.00
9419;BME280;4748;50.802;7.132;2022-12-24T10:09:57;100775.19;;;12.60;100.00
9419;BME280;4748;50.802;7.132;2022-12-24T10:12:44;100778.47;;;12.62;100.00
9419;BME280;4748;50.802;7.132;2022-12-24T10:15:27;100772.28;;;12.61;100.00
9419;BME280;4748;50.802;7.132;2022-12-24T10:23:43;100783.34;;;12.53;100.00
9419;BME280;4748;50.802;7.132;2022-12-24T10:26:27;100780.56;;;12.60;100.00
9419;BME280;4748;50.802;7.132;2022-12-24T10:29:00;100768.66;;;12.67;100.00
9419;BME280;4748;50.802;7.132;2022-12-24T10:31:30;100780.59;;;12.71;100.00
9419;BME280;4748;50.802;7.132;2022-12-24T10:34:10;100775.81;;;12.73;100.00
9419;BME280;4748;50.802;7.132;2022-12-24T10:36:36;100778.50;;;12.73;100.00
9419;BME280;4748;50.802;7.132;2022-12-24T10:39:01;100781.09;;;12.79;100.00
9419;BME280;4748;50.802;7.132;2022-12-24T10:41:28;100779.63;;;12.83;100.00
9419;BME280;4748;50.802;7.132;2022-12-24T10:43:55;100790.00;;;12.91;100.00
9419;BME280;4748;50.802;7.132;2022-12-24T10:46:34;100790.47;;;12.88;100.00
9419;BME280;4748;50.802;7.132;2022-12-24T10:49:03;100789.28;;;12.84;100.00
9419;BME280;4748;50.802;7.132;2022-12-24T10:54:21;100795.50;;;12.85;100.00
9419;BME280;4748;50.802;7.132;2022-12-24T10:56:50;100790.47;;;12.88;100.00
9419;BME280;4748;50.802;7.132;2022-12-24T10:59:39;100786.28;;;12.92;100.00
9419;BME280;4748;50.802;7.132;2022-12-24T11:02:33;100783.13;;;12.95;100.00
9419;BME280;4748;50.802;7.132;2022-12-24T11:05:01;100779.25;;;12.91;100.00
9419;BME280;4748;50.802;7.132;2022-12-24T11:07:28;100775.06;;;12.95;100.00
9419;BME280;4748;50.802;7.132;2022-12-24T11:10:00;100778.78;;;12.94;100.00
9419;BME280;4748;50.802;7.132;2022-12-24T11:12:29;100781.38;;;12.89;100.00
9419;BME280;4748;50.802;7.132;2022-12-24T11:15:15;100783.94;;;12.96;100.00
9419;BME280;4748;50.802;7.132;2022-12-24T11:17:43;100778.44;;;12.91;100.00
9419;BME280;4748;50.802;7.132;2022-12-24T11:20:17;100788.16;;;13.03;100.00
9419;BME280;4748;50.802;7.132;2022-12-24T11:22:48;100783.38;;;13.17;100.00
9419;BME280;4748;50.802;7.132;2022-12-24T11:28:09;100778.00;;;13.17;100.00
9419;BME280;4748;50.802;7.132;2022-12-24T11:30:34;100767.63;;;13.20;100.00
9419;BME280;4748;50.802;7.132;2022-12-24T11:35:27;100772.84;;;13.15;100.00
9419;BME280;4748;50.802;7.132;2022-12-24T11:40:30;100780.22;;;13.08;100.00
9419;BME280;4748;50.802;7.132;2022-12-24T11:42:59;100776.00;;;13.01;100.00
9419;BME280;4748;50.802;7.132;2022-12-24T11:45:26;100780.81;;;12.99;100.00
9419;BME280;4748;50.802;7.132;2022-12-24T11:47:53;100781.63;;;12.99;100.00
9419;BME280;4748;50.802;7.132;2022-12-24T11:55:55;100789.06;;;12.97;100.00
9419;BME280;4748;50.802;7.132;2022-12-24T11:58:50;100788.75;;;13.05;100.00
9419;BME280;4748;50.802;7.132;2022-12-24T12:03:50;100782.56;;;13.16;100.00
9419;BME280;4748;50.802;7.132;2022-12-24T12:09:05;100788.75;;;13.17;100.00
9419;BME280;4748;50.802;7.132;2022-12-24T12:11:33;100788.66;;;13.23;100.00
9419;BME280;4748;50.802;7.132;2022-12-24T12:14:01;100791.69;;;13.26;100.00
9419;BME280;4748;50.802;7.132;2022-12-24T12:16:54;100787.94;;;13.27;100.00
9419;BME280;4748;50.802;7.132;2022-12-24T12:19:27;100792.84;;;13.30;100.00
9419;BME280;4748;50.802;7.132;2022-12-24T12:21:53;100796.72;;;13.34;100.00
9419;BME280;4748;50.802;7.132;2022-12-24T12:24:23;100792.63;;;13.43;100.00
9419;BME280;4748;50.802;7.132;2022-12-24T12:29:48;100794.03;;;13.57;100.00
9419;BME280;4748;50.802;7.132;2022-12-24T12:32:31;100793.88;;;13.52;100.00
9419;BME280;4748;50.802;7.132;2022-12-24T12:35:20;100797.28;;;13.59;100.00
9419;BME280;4748;50.802;7.132;2022-12-24T12:37:54;100798.69;;;13.62;100.00
9419;BME280;4748;50.802;7.132;2022-12-24T12:40:29;100806.06;;;13.66;100.00
9419;BME280;4748;50.802;7.132;2022-12-24T12:43:25;100801.47;;;13.67;100.00
9419;BME280;4748;50.802;7.132;2022-12-24T12:45:56;100808.41;;;13.63;100.00
9419;BME280;4748;50.802;7.132;2022-12-24T12:54:16;100809.00;;;13.53;100.00
9419;BME280;4748;50.802;7.132;2022-12-24T12:56:48;100807.25;;;13.47;100.00
9419;BME280;4748;50.802;7.132;2022-12-24T13:21:57;100822.97;;;13.78;100.00
9419;BME280;4748;50.802;7.132;2022-12-24T13:24:25;100829.78;;;13.80;100.00
9419;BME280;4748;50.802;7.132;2022-12-24T13:27:28;100829.91;;;13.85;100.00
9419;BME280;4748;50.802;7.132;2022-12-24T13:30:02;100829.03;;;13.96;100.00
9419;BME280;4748;50.802;7.132;2022-12-24T13:32:45;100827.44;;;14.07;100.00
9419;BME280;4748;50.802;7.132;2022-12-24T13:37:46;100838.50;;;14.22;100.00
9419;BME280;4748;50.802;7.132;2022-12-24T13:40:22;100843.38;;;14.36;100.00
9419;BME280;4748;50.802;7.132;2022-12-24T13:48:01;100846.38;;;14.51;100.00
9419;BME280;4748;50.802;7.132;2022-12-24T13:53:02;100842.22;;;14.60;100.00
9419;BME280;4748;50.802;7.132;2022-12-24T13:55:28;100855.47;;;14.61;100.00
9419;BME280;4748;50.802;7.132;2022-12-24T13:58:03;100860.84;;;14.61;100.00
9419;BME280;4748;50.802;7.132;2022-12-24T14:00:32;100852.47;;;14.46;100.00
9419;BME280;4748;50.802;7.132;2022-12-24T14:03:06;100863.81;;;14.48;100.00
9419;BME280;4748;50.802;7.132;2022-12-24T14:05:45;100864.44;;;14.50;100.00
9419;BME280;4748;50.802;7.132;2022-12-24T14:08:15;100864.19;;;14.52;100.00
9419;BME280;4748;50.802;7.132;2022-12-24T14:10:44;100861.13;;;14.48;100.00
9419;BME280;4748;50.802;7.132;2022-12-24T14:16:17;100863.88;;;14.37;100.00
9419;BME280;4748;50.802;7.132;2022-12-24T14:19:22;100873.00;;;14.36;100.00
9419;BME280;4748;50.802;7.132;2022-12-24T14:22:01;100875.00;;;14.29;100.00
9419;BME280;4748;50.802;7.132;2022-12-24T14:24:37;100867.75;;;14.29;100.00
9419;BME280;4748;50.802;7.132;2022-12-24T14:27:13;100872.47;;;14.23;100.00
9419;BME280;4748;50.802;7.132;2022-12-24T14:30:05;100866.84;;;14.24;100.00
9419;BME280;4748;50.802;7.132;2022-12-24T14:32:39;100875.88;;;14.18;100.00
9419;BME280;4748;50.802;7.132;2022-12-24T14:37:34;100871.44;;;14.12;100.00
9419;BME280;4748;50.802;7.132;2022-12-24T14:40:00;100872.47;;;14.00;100.00
9419;BME280;4748;50.802;7.132;2022-12-24T14:42:38;100880.91;;;13.92;100.00